This is the latest recevied weather packets stored in our database for station/object SV9TNF-52. If no packets are shown the sender has not sent any weather packets the latest 10 day(s).
| Time | Temp. | Humidity | Pressure | Rain* | Wind** | Luminosity | Snow |
|---|---|---|---|---|---|---|---|
| 1787883109 | 24.44° C | 77% | 1020 hPa | 0 mm | 2.68 m/s, 112° | - | - |
| 1787882809 | 24.44° C | 77% | 1020 hPa | 0 mm | 2.24 m/s, 211° | - | - |
| 1787882509 | 24.44° C | 76% | 1020 hPa | 0 mm | 1.79 m/s, 221° | - | - |
| 1787882216 | 24.44° C | 76% | 1020 hPa | 0 mm | 3.58 m/s, 224° | - | - |
| 1787881609 | 24.44° C | 75% | 1020 hPa | 0 mm | 4.47 m/s, 153° | - | - |
| 1787881308 | 24.44° C | 75% | 1020 hPa | 0 mm | 4.47 m/s, 178° | - | - |
| 1787881008 | 25° C | 75% | 1020 hPa | 0 mm | 3.58 m/s, 188° | - | - |
| 1787880708 | 25° C | 75% | 1020.3 hPa | 0 mm | 4.92 m/s, 196° | - | - |
| 1787880408 | 25° C | 75% | 1020.3 hPa | 0 mm | 8.05 m/s, 182° | - | - |
| 1787880108 | 25° C | 74% | 1020 hPa | 0 mm | 5.81 m/s, 151° | - | - |
| 1787879808 | 25° C | 74% | 1020 hPa | 0 mm | 6.26 m/s, 186° | - | - |
| 1787879508 | 25° C | 73% | 1020.3 hPa | 0 mm | 4.92 m/s, 176° | - | - |
| 1787879208 | 25.56° C | 72% | 1020.3 hPa | 0 mm | 4.92 m/s, 199° | - | - |
| 1787878908 | 26.67° C | 73% | 1020.3 hPa | 0 mm | 1.34 m/s, 37° | - | - |
| 1787878607 | 26.67° C | 73% | 1020.3 hPa | 0 mm | 3.58 m/s, 19° | - | - |
| 1787878307 | 26.67° C | 73% | 1020.3 hPa | 0 mm | 2.24 m/s, 76° | - | - |
| 1787878007 | 26.11° C | 73% | 1020.7 hPa | 0 mm | 1.34 m/s, 110° | - | - |
| 1787877708 | 25.56° C | 73% | 1020.7 hPa | 0 mm | 0 m/s | - | - |
| 1787877407 | 25.56° C | 73% | 1020.7 hPa | 0 mm | 3.13 m/s, 169° | - | - |
| 1787877107 | 25.56° C | 73% | 1020.7 hPa | 0 mm | 4.02 m/s, 306° | - | - |
| 1787876807 | 26.11° C | 73% | 1020.7 hPa | 0 mm | 0 m/s | - | - |
| 1787876507 | 26.11° C | 72% | 1020.7 hPa | 0 mm | 0 m/s | - | - |
| 1787876207 | 26.11° C | 72% | 1020.7 hPa | 0 mm | 3.13 m/s, 158° | - | - |
| 1787875906 | 26.67° C | 72% | 1020.7 hPa | 0 mm | 2.68 m/s, 99° | - | - |
| 1787875606 | 26.67° C | 72% | 1020.7 hPa | 0 mm | 1.79 m/s, 254° | - | - |
* Rain latest hour (hover to see other rain measurements)
** Current wind speed in m/s (hover to see current wind gust speed)